createdAt,value
2023-04-22T00:00:22.580Z,87.10
2023-04-22T00:03:14.475Z,86.80
2023-04-22T00:06:06.102Z,86.50
2023-04-22T00:08:57.564Z,86.60
2023-04-22T00:11:50.328Z,87.20
2023-04-22T00:14:41.777Z,87.70
2023-04-22T00:17:35.291Z,88.10
2023-04-22T00:20:26.830Z,88.20
2023-04-22T00:23:18.067Z,88.70
2023-04-22T00:26:09.540Z,89.40
2023-04-22T00:29:01.138Z,90.00
2023-04-22T00:31:52.414Z,90.30
2023-04-22T00:34:44.245Z,90.40
2023-04-22T00:37:36.020Z,90.70
2023-04-22T00:40:27.836Z,90.90
2023-04-22T00:43:19.959Z,91.40
2023-04-22T00:46:11.749Z,91.60
2023-04-22T00:49:03.772Z,92.00
2023-04-22T00:51:55.522Z,92.10
2023-04-22T00:54:49.447Z,92.30
2023-04-22T00:57:41.426Z,92.70
2023-04-22T01:00:33.292Z,92.70
2023-04-22T01:03:28.719Z,92.70
2023-04-22T01:06:21.599Z,92.70
2023-04-22T01:09:13.044Z,92.70
2023-04-22T01:12:05.103Z,92.80
2023-04-22T01:14:56.259Z,92.80
2023-04-22T01:17:48.148Z,92.80
2023-04-22T01:20:39.625Z,92.80
2023-04-22T01:23:31.100Z,92.90
2023-04-22T01:26:22.677Z,93.10
2023-04-22T01:29:14.070Z,93.30
2023-04-22T01:32:06.548Z,93.40
2023-04-22T01:34:58.050Z,93.40
2023-04-22T01:37:49.568Z,93.40
2023-04-22T01:40:41.533Z,93.50
2023-04-22T01:43:33.781Z,93.60
2023-04-22T01:46:29.258Z,93.60
2023-04-22T01:49:21.486Z,93.70
2023-04-22T01:52:25.691Z,93.70
2023-04-22T01:55:17.436Z,93.80
2023-04-22T01:58:08.780Z,93.70
2023-04-22T02:03:40.808Z,93.80
2023-04-22T02:06:32.846Z,93.80
2023-04-22T02:09:24.048Z,93.70
2023-04-22T02:12:15.081Z,93.50
2023-04-22T02:15:08.306Z,93.70
2023-04-22T02:18:00.217Z,93.60
2023-04-22T02:20:53.378Z,93.60
2023-04-22T02:23:44.500Z,93.60
2023-04-22T02:26:35.707Z,93.20
2023-04-22T02:29:27.430Z,93.10
2023-04-22T02:32:20.426Z,93.20
2023-04-22T02:35:12.703Z,93.20
2023-04-22T02:38:05.465Z,93.10
2023-04-22T02:40:56.686Z,92.60
2023-04-22T02:43:50.399Z,92.30
2023-04-22T02:46:41.813Z,92.30
2023-04-22T02:49:33.465Z,92.00
2023-04-22T02:52:24.753Z,91.50
2023-04-22T02:55:16.291Z,91.60
2023-04-22T02:58:09.200Z,91.50
2023-04-22T03:01:02.094Z,91.30
2023-04-22T03:03:54.076Z,91.30
2023-04-22T03:06:46.711Z,91.10
2023-04-22T03:09:41.279Z,91.30
2023-04-22T03:12:32.851Z,91.40
2023-04-22T03:15:24.407Z,91.50
2023-04-22T03:18:15.668Z,91.30
2023-04-22T03:21:08.766Z,91.50
2023-04-22T03:24:00.116Z,91.70
2023-04-22T03:26:51.683Z,92.90
2023-04-22T03:29:42.990Z,93.40
2023-04-22T03:32:34.437Z,94.50
2023-04-22T03:35:27.497Z,95.20
2023-04-22T03:38:20.638Z,95.50
2023-04-22T03:41:13.316Z,96.30
2023-04-22T03:44:05.994Z,97.10
2023-04-22T03:46:57.729Z,98.50
2023-04-22T03:49:51.114Z,99.70
2023-04-22T03:52:42.421Z,99.90
2023-04-22T03:55:34.988Z,99.90
2023-04-22T03:58:26.419Z,99.90
2023-04-22T04:01:19.439Z,99.90
2023-04-22T04:04:12.670Z,99.90
2023-04-22T04:07:09.785Z,99.90
2023-04-22T04:10:01.442Z,99.90
2023-04-22T04:12:53.485Z,99.90
2023-04-22T04:15:45.655Z,99.90
2023-04-22T04:18:37.558Z,99.90
2023-04-22T04:21:29.466Z,99.90
2023-04-22T04:24:20.850Z,99.90
2023-04-22T04:27:13.771Z,99.90
2023-04-22T04:30:09.764Z,99.90
2023-04-22T04:33:05.391Z,99.90
2023-04-22T04:35:56.743Z,99.90
2023-04-22T04:38:49.686Z,99.90
2023-04-22T04:41:41.372Z,99.90
2023-04-22T04:44:34.015Z,99.90
2023-04-22T04:47:27.228Z,99.90
2023-04-22T04:50:20.960Z,99.90
2023-04-22T04:53:14.010Z,99.90
2023-04-22T04:56:06.580Z,99.90
2023-04-22T04:58:58.653Z,99.90
2023-04-22T05:01:52.288Z,99.90
2023-04-22T05:04:43.744Z,99.90
2023-04-22T05:07:35.675Z,99.90
2023-04-22T05:10:27.337Z,99.90
2023-04-22T05:13:20.469Z,99.90
2023-04-22T05:16:12.350Z,99.90
2023-04-22T05:19:03.883Z,99.90
2023-04-22T05:21:56.904Z,99.90
2023-04-22T05:24:48.396Z,99.90
2023-04-22T05:27:39.736Z,99.90
2023-04-22T05:30:31.630Z,99.90
2023-04-22T05:33:23.089Z,99.90
2023-04-22T05:36:14.897Z,99.90
2023-04-22T05:39:07.318Z,99.90
2023-04-22T05:41:59.216Z,99.90
2023-04-22T05:44:51.336Z,99.90
2023-04-22T05:47:43.174Z,99.90
2023-04-22T05:50:34.858Z,99.90
2023-04-22T05:53:27.519Z,99.90
2023-04-22T05:56:19.696Z,99.90
2023-04-22T05:59:11.334Z,99.90
2023-04-22T06:02:02.929Z,99.90
2023-04-22T06:04:54.435Z,99.90
2023-04-22T06:07:46.348Z,99.90
2023-04-22T06:10:38.368Z,99.90
2023-04-22T06:13:30.096Z,99.90
2023-04-22T06:16:21.498Z,99.90
2023-04-22T06:19:13.491Z,99.90
2023-04-22T06:22:05.089Z,99.90
2023-04-22T06:24:56.436Z,99.90
2023-04-22T06:27:47.895Z,99.90
2023-04-22T06:30:39.151Z,99.90
2023-04-22T06:33:30.756Z,99.90
2023-04-22T06:36:22.437Z,99.90
2023-04-22T06:39:15.204Z,99.90
2023-04-22T06:42:13.932Z,99.90
2023-04-22T06:45:09.611Z,99.90
2023-04-22T06:48:19.213Z,99.90
2023-04-22T06:51:12.198Z,99.90
2023-04-22T06:54:03.541Z,99.90
2023-04-22T06:56:57.822Z,99.90
2023-04-22T06:59:49.042Z,99.90
2023-04-22T07:02:42.809Z,99.90
2023-04-22T07:05:34.235Z,99.90
2023-04-22T07:08:26.666Z,99.90
2023-04-22T07:11:18.606Z,99.90
2023-04-22T07:14:14.254Z,99.90
2023-04-22T07:17:06.078Z,99.90
2023-04-22T07:19:57.621Z,99.90
2023-04-22T07:22:52.799Z,99.90
2023-04-22T07:25:44.453Z,99.90
2023-04-22T07:28:35.921Z,99.90
2023-04-22T07:31:27.233Z,99.90
2023-04-22T07:34:18.895Z,99.90
2023-04-22T07:37:10.322Z,99.90
2023-04-22T07:40:01.310Z,99.90
2023-04-22T07:42:52.831Z,99.90
2023-04-22T07:45:44.042Z,99.90
2023-04-22T07:48:35.801Z,99.90
2023-04-22T07:51:27.129Z,99.90
2023-04-22T07:54:18.865Z,99.90
2023-04-22T07:57:10.057Z,99.90
2023-04-22T08:00:02.095Z,99.90
2023-04-22T08:02:55.391Z,99.90
2023-04-22T08:05:46.684Z,99.90
2023-04-22T08:08:38.143Z,99.90
2023-04-22T08:11:29.789Z,99.90
2023-04-22T08:14:21.114Z,99.90
2023-04-22T08:17:12.521Z,99.90
2023-04-22T08:20:07.949Z,99.90
2023-04-22T08:23:00.480Z,99.90
2023-04-22T08:25:52.311Z,99.90
2023-04-22T08:28:43.771Z,99.90
2023-04-22T08:31:36.035Z,99.90
2023-04-22T08:34:29.128Z,99.90
2023-04-22T08:37:21.014Z,99.90
2023-04-22T08:40:14.633Z,99.90
2023-04-22T08:43:09.884Z,99.90
2023-04-22T08:46:02.297Z,99.90
2023-04-22T08:48:54.166Z,99.90
2023-04-22T08:51:46.719Z,99.90
2023-04-22T08:54:38.289Z,99.90
2023-04-22T08:57:34.202Z,99.90
2023-04-22T09:00:25.888Z,99.90
2023-04-22T09:03:19.489Z,99.90
2023-04-22T09:06:13.619Z,99.90
2023-04-22T09:09:06.141Z,99.90
2023-04-22T09:11:58.154Z,99.90
2023-04-22T09:14:49.755Z,99.90
2023-04-22T09:17:41.612Z,99.90
2023-04-22T09:20:33.435Z,99.90
2023-04-22T09:23:25.524Z,99.90
2023-04-22T09:26:18.494Z,99.90
2023-04-22T09:29:11.548Z,99.90
2023-04-22T09:32:14.166Z,99.90
2023-04-22T09:35:06.371Z,99.90
2023-04-22T09:38:00.829Z,99.90
2023-04-22T09:40:52.652Z,99.90
2023-04-22T09:43:44.317Z,99.90
2023-04-22T09:46:36.379Z,99.90
2023-04-22T09:49:29.788Z,99.90
2023-04-22T09:52:27.091Z,99.90
2023-04-22T09:55:20.503Z,99.90
2023-04-22T09:58:13.599Z,99.90
2023-04-22T10:01:04.943Z,99.90
2023-04-22T10:06:43.953Z,99.90
2023-04-22T10:09:38.282Z,99.90
2023-04-22T10:15:13.456Z,99.90
2023-04-22T10:18:07.611Z,99.90
2023-04-22T10:21:00.723Z,99.90
2023-04-22T10:23:52.373Z,99.90
2023-04-22T10:26:45.390Z,99.90
2023-04-22T10:29:40.718Z,99.90
2023-04-22T10:32:33.388Z,99.90
2023-04-22T10:35:30.750Z,99.90
2023-04-22T10:38:23.090Z,99.90
2023-04-22T10:41:17.799Z,99.90
2023-04-22T10:44:09.542Z,99.90
2023-04-22T10:47:02.408Z,99.90
2023-04-22T10:49:53.834Z,99.90
2023-04-22T10:52:47.403Z,99.90
2023-04-22T10:55:53.589Z,99.90
2023-04-22T10:58:45.084Z,99.90
2023-04-22T11:01:43.488Z,99.90
2023-04-22T11:04:35.380Z,99.90
2023-04-22T11:07:36.477Z,99.90
2023-04-22T11:10:41.529Z,99.90
2023-04-22T11:13:44.635Z,99.90
2023-04-22T11:16:38.654Z,99.90
2023-04-22T11:19:31.437Z,99.90
2023-04-22T11:22:24.231Z,99.90
2023-04-22T11:25:16.391Z,99.90
2023-04-22T11:28:08.036Z,99.90
2023-04-22T11:31:05.875Z,99.90
2023-04-22T11:34:00.845Z,99.90
2023-04-22T11:36:54.704Z,99.90
2023-04-22T11:43:36.026Z,99.90
2023-04-22T11:49:59.493Z,99.90
2023-04-22T11:53:01.223Z,99.90
2023-04-22T11:55:56.209Z,99.90
2023-04-22T11:59:13.432Z,99.90
2023-04-22T12:02:23.799Z,99.90
2023-04-22T12:05:15.414Z,99.90
2023-04-22T12:08:11.119Z,99.90
2023-04-22T12:13:47.643Z,99.90
2023-04-22T12:17:04.549Z,99.90
2023-04-22T12:19:57.679Z,99.90
2023-04-22T12:22:54.787Z,99.90
2023-04-22T12:25:50.971Z,99.90
2023-04-22T12:29:32.514Z,99.90
2023-04-22T12:49:32.578Z,99.90
2023-04-22T12:56:25.869Z,99.90
2023-04-22T13:00:06.321Z,99.90
2023-04-22T13:03:22.929Z,99.90
2023-04-22T13:06:26.020Z,99.90
2023-04-22T13:13:19.517Z,99.90
2023-04-22T13:16:40.120Z,99.90
2023-04-22T13:19:59.590Z,99.90
2023-04-22T13:37:16.870Z,99.40
2023-04-22T13:40:17.348Z,98.40
2023-04-22T13:43:12.969Z,97.80
2023-04-22T13:46:15.926Z,97.50
2023-04-22T13:51:51.799Z,97.70
2023-04-22T13:54:43.148Z,96.90
2023-04-22T13:57:34.382Z,97.30
2023-04-22T14:00:25.796Z,96.80
2023-04-22T14:03:17.069Z,97.60
2023-04-22T14:06:09.344Z,97.80
2023-04-22T14:09:01.490Z,98.20
2023-04-22T14:11:52.917Z,97.90
2023-04-22T14:14:44.648Z,97.90
2023-04-22T14:20:21.588Z,98.70
2023-04-22T14:23:12.920Z,98.10
2023-04-22T14:31:24.716Z,98.60
2023-04-22T14:34:16.368Z,98.60
2023-04-22T14:37:07.705Z,98.40
2023-04-22T14:39:59.088Z,98.60
2023-04-22T14:42:51.264Z,98.40
2023-04-22T14:45:42.904Z,98.70
2023-04-22T14:48:35.524Z,99.00
2023-04-22T14:51:28.725Z,98.80
2023-04-22T14:54:20.572Z,98.60
2023-04-22T14:57:12.564Z,98.70
2023-04-22T15:00:03.878Z,98.50
2023-04-22T15:05:34.382Z,98.70
2023-04-22T15:08:26.131Z,98.70
2023-04-22T15:11:17.204Z,98.70
2023-04-22T15:14:08.675Z,98.60
2023-04-22T15:17:00.255Z,98.40
2023-04-22T15:19:53.504Z,98.60
2023-04-22T15:22:45.025Z,98.70
2023-04-22T15:25:36.575Z,98.90
2023-04-22T15:28:28.181Z,99.20
2023-04-22T15:31:19.441Z,99.00
2023-04-22T15:34:11.091Z,98.70
2023-04-22T15:37:02.779Z,98.80
2023-04-22T15:39:54.199Z,98.80
2023-04-22T15:42:45.794Z,99.20
2023-04-22T15:48:16.205Z,99.20
2023-04-22T15:51:07.585Z,99.30
2023-04-22T15:53:59.229Z,99.40
2023-04-22T15:56:50.629Z,99.20
2023-04-22T15:59:42.438Z,99.30
2023-04-22T16:02:34.022Z,99.60
2023-04-22T16:05:26.161Z,99.60
2023-04-22T16:08:18.407Z,99.80
2023-04-22T16:11:10.850Z,99.50
2023-04-22T16:14:02.093Z,99.70
2023-04-22T16:19:33.066Z,99.80
2023-04-22T16:22:24.530Z,99.80
2023-04-22T16:25:15.866Z,99.70
2023-04-22T16:28:07.392Z,99.80
2023-04-22T16:30:58.804Z,99.50
2023-04-22T16:33:50.217Z,99.50
2023-04-22T16:36:43.022Z,99.70
2023-04-22T16:42:15.314Z,99.80
2023-04-22T16:45:08.128Z,99.90
2023-04-22T16:47:59.609Z,99.90
2023-04-22T16:50:52.366Z,99.90
2023-04-22T16:53:43.686Z,99.90
2023-04-22T16:59:15.210Z,99.90
2023-04-22T17:02:07.126Z,99.90
2023-04-22T17:04:58.893Z,99.90
2023-04-22T17:07:50.662Z,99.90
2023-04-22T17:10:44.021Z,99.90
2023-04-22T17:13:36.036Z,99.90
2023-04-22T17:16:27.603Z,99.90
2023-04-22T17:19:19.228Z,99.90
2023-04-22T17:22:10.896Z,99.90
2023-04-22T17:25:02.165Z,99.90
2023-04-22T17:27:53.824Z,99.90
2023-04-22T17:30:45.565Z,99.90
2023-04-22T17:33:37.571Z,99.90
2023-04-22T17:36:28.920Z,99.90
2023-04-22T17:39:20.592Z,99.90
2023-04-22T17:42:12.070Z,99.90
2023-04-22T17:45:03.923Z,99.90
2023-04-22T17:47:55.645Z,99.90
2023-04-22T17:50:47.281Z,99.90
2023-04-22T17:53:40.137Z,99.90
2023-04-22T17:56:31.515Z,99.90
2023-04-22T17:59:28.127Z,99.90
2023-04-22T18:02:26.256Z,99.90
2023-04-22T18:05:20.422Z,99.90
2023-04-22T18:08:13.856Z,99.90
2023-04-22T18:13:48.865Z,99.90
2023-04-22T18:16:40.399Z,99.90
2023-04-22T18:19:33.542Z,99.90
2023-04-22T18:22:25.172Z,99.90
2023-04-22T18:25:18.911Z,99.90
2023-04-22T18:28:10.039Z,99.90
2023-04-22T18:31:04.712Z,99.90
2023-04-22T18:33:58.791Z,99.90
2023-04-22T18:36:50.188Z,99.90
2023-04-22T18:39:41.475Z,99.90
2023-04-22T18:42:34.627Z,99.90
2023-04-22T18:48:06.854Z,99.90
2023-04-22T18:50:57.976Z,99.90
2023-04-22T18:53:50.984Z,99.90
2023-04-22T18:56:47.303Z,99.90
2023-04-22T18:59:38.597Z,99.90
2023-04-22T19:02:29.751Z,99.90
2023-04-22T19:05:22.263Z,99.90
2023-04-22T19:08:13.423Z,99.90
2023-04-22T19:11:04.728Z,99.90
2023-04-22T19:13:56.292Z,99.90
2023-04-22T19:16:47.652Z,99.90
2023-04-22T19:19:39.332Z,99.90
2023-04-22T19:25:12.842Z,99.90
2023-04-22T19:28:05.427Z,99.90
2023-04-22T19:30:58.832Z,99.90
2023-04-22T19:36:31.952Z,99.90
2023-04-22T19:39:23.046Z,99.90
2023-04-22T19:42:14.828Z,99.90
2023-04-22T19:45:07.494Z,99.90
2023-04-22T19:48:02.315Z,99.90
2023-04-22T19:50:54.017Z,99.90
2023-04-22T19:56:28.154Z,99.90
2023-04-22T19:59:19.958Z,99.90
2023-04-22T20:02:14.602Z,99.90
2023-04-22T20:05:08.812Z,99.90
2023-04-22T20:08:02.003Z,99.90
2023-04-22T20:10:56.659Z,99.90
2023-04-22T20:13:50.026Z,99.90
2023-04-22T20:16:43.096Z,99.90
2023-04-22T20:19:36.584Z,99.90
2023-04-22T20:22:29.184Z,99.90
2023-04-22T20:28:01.374Z,99.90
2023-04-22T20:30:53.641Z,99.90
2023-04-22T20:33:45.668Z,99.90
2023-04-22T20:40:03.919Z,99.90
2023-04-22T20:42:58.057Z,99.90
2023-04-22T20:45:49.264Z,99.90
2023-04-22T20:48:41.291Z,99.90
2023-04-22T20:51:32.964Z,99.90
2023-04-22T20:54:43.329Z,99.90
2023-04-22T20:57:20.968Z,99.90
2023-04-22T21:00:14.600Z,99.90
2023-04-22T21:03:09.776Z,99.90
2023-04-22T21:06:01.245Z,99.90
2023-04-22T21:08:54.189Z,99.90
2023-04-22T21:11:46.364Z,99.90
2023-04-22T21:14:41.657Z,99.90
2023-04-22T21:17:33.796Z,99.90
2023-04-22T21:20:27.457Z,99.90
2023-04-22T21:23:20.964Z,99.90
2023-04-22T21:26:13.690Z,99.90
2023-04-22T21:29:06.982Z,99.90
2023-04-22T21:34:39.648Z,99.90
2023-04-22T21:37:31.384Z,99.90
2023-04-22T21:40:23.259Z,99.90
2023-04-22T21:43:14.421Z,99.90
2023-04-22T21:46:06.277Z,99.90
2023-04-22T21:48:58.543Z,99.90
2023-04-22T21:51:49.699Z,99.90
2023-04-22T21:54:41.375Z,99.90
2023-04-22T21:57:32.898Z,99.90
2023-04-22T22:00:25.317Z,99.90
2023-04-22T22:03:16.891Z,99.90
2023-04-22T22:06:09.061Z,99.90
2023-04-22T22:09:00.616Z,99.90
2023-04-22T22:11:52.097Z,99.90
2023-04-22T22:14:44.197Z,99.90
2023-04-22T22:17:37.270Z,99.90
2023-04-22T22:20:29.895Z,99.90
2023-04-22T22:23:23.521Z,99.90
2023-04-22T22:26:15.109Z,99.90
2023-04-22T22:29:06.814Z,99.90
2023-04-22T22:31:58.350Z,99.90
2023-04-22T22:34:49.936Z,99.90
2023-04-22T22:37:41.204Z,99.90
2023-04-22T22:43:14.199Z,99.90
2023-04-22T22:46:05.612Z,99.90
2023-04-22T22:48:58.019Z,99.90
2023-04-22T22:54:35.252Z,99.90
2023-04-22T22:57:26.292Z,99.90
2023-04-22T23:00:18.591Z,99.90
2023-04-22T23:03:10.363Z,99.90
2023-04-22T23:06:02.059Z,99.90
2023-04-22T23:08:53.767Z,99.90
2023-04-22T23:14:23.825Z,99.90
2023-04-22T23:17:16.221Z,99.90
2023-04-22T23:20:11.111Z,99.90
2023-04-22T23:23:04.122Z,99.90
2023-04-22T23:25:56.821Z,99.90
2023-04-22T23:28:49.137Z,99.90
2023-04-22T23:31:43.533Z,99.90
2023-04-22T23:34:36.591Z,99.90
2023-04-22T23:37:30.035Z,99.90
2023-04-22T23:40:21.842Z,99.90
2023-04-22T23:43:13.271Z,99.90
2023-04-22T23:46:04.949Z,99.90
2023-04-22T23:48:57.309Z,99.90
2023-04-22T23:51:48.659Z,99.90
2023-04-22T23:54:41.737Z,99.90
2023-04-22T23:57:34.641Z,99.90
